createdAt,value
2023-02-09T00:01:42.956Z,103209.19
2023-02-09T00:04:29.887Z,103206.38
2023-02-09T00:07:21.741Z,103196.59
2023-02-09T00:10:09.080Z,103209.13
2023-02-09T00:13:14.692Z,103191.84
2023-02-09T00:16:02.697Z,103196.44
2023-02-09T00:18:49.112Z,103198.31
2023-02-09T00:21:36.006Z,103191.38
2023-02-09T00:24:23.027Z,103189.66
2023-02-09T00:27:10.136Z,103188.56
2023-02-09T00:29:58.353Z,103184.91
2023-02-09T00:32:45.200Z,103177.69
2023-02-09T00:35:31.967Z,103178.28
2023-02-09T00:38:18.766Z,103137.72
2023-02-09T00:41:07.157Z,103172.09
2023-02-09T00:43:53.844Z,103163.69
2023-02-09T00:46:42.350Z,103160.19
2023-02-09T00:49:29.526Z,103156.53
2023-02-09T00:52:16.358Z,103158.97
2023-02-09T00:55:03.367Z,103159.06
2023-02-09T00:57:49.910Z,103163.16
2023-02-09T01:00:36.707Z,103152.81
2023-02-09T01:03:24.875Z,103151.09
2023-02-09T01:06:12.636Z,103162.78
2023-02-09T01:08:59.878Z,103154.84
2023-02-09T01:11:46.591Z,103160.69
2023-02-09T01:14:33.358Z,103149.44
2023-02-09T01:17:20.371Z,103158.16
2023-02-09T01:20:10.318Z,103158.75
2023-02-09T01:22:57.620Z,103146.13
2023-02-09T01:25:44.540Z,103159.91
2023-02-09T01:28:31.049Z,103149.41
2023-02-09T01:31:21.608Z,103147.31
2023-02-09T01:34:13.269Z,103138.53
2023-02-09T01:37:01.030Z,103137.63
2023-02-09T01:39:47.926Z,103137.25
2023-02-09T01:42:34.732Z,103125.03
2023-02-09T01:45:29.852Z,103118.84
2023-02-09T01:48:19.224Z,103117.00
2023-02-09T01:51:06.276Z,103100.09
2023-02-09T01:53:54.339Z,103098.91
2023-02-09T01:56:46.517Z,103093.56
2023-02-09T01:59:35.823Z,103064.38
2023-02-09T02:02:23.593Z,103086.84
2023-02-09T02:05:11.356Z,103075.53
2023-02-09T02:08:03.072Z,103082.53
2023-02-09T02:10:52.213Z,103066.31
2023-02-09T02:13:38.773Z,103068.47
2023-02-09T02:16:46.343Z,103066.97
2023-02-09T02:20:17.767Z,103070.75
2023-02-09T02:23:18.199Z,103060.03
2023-02-09T02:26:46.805Z,103050.13
2023-02-09T02:30:10.866Z,103047.59
2023-02-09T02:33:12.811Z,103053.34
2023-02-09T02:36:06.854Z,103055.28
2023-02-09T02:38:58.329Z,103048.22
2023-02-09T02:42:10.539Z,103044.84
2023-02-09T02:45:04.273Z,103042.25
2023-02-09T02:47:58.562Z,102998.56
2023-02-09T02:50:53.758Z,103041.84
2023-02-09T02:53:44.915Z,103043.59
2023-02-09T02:56:35.592Z,103039.63
2023-02-09T02:59:28.775Z,103033.97
2023-02-09T03:02:20.158Z,103031.16
2023-02-09T03:05:08.374Z,103031.78
2023-02-09T03:07:56.638Z,103030.66
2023-02-09T03:10:43.879Z,102985.41
2023-02-09T03:13:41.970Z,103026.47
2023-02-09T03:16:34.999Z,103013.25
2023-02-09T03:19:31.481Z,103017.69
2023-02-09T03:22:27.307Z,103019.31
2023-02-09T03:25:19.508Z,103002.72
2023-02-09T03:28:09.725Z,103001.41
2023-02-09T03:30:58.685Z,102998.72
2023-02-09T03:33:45.808Z,102996.56
2023-02-09T03:36:34.877Z,102990.19
2023-02-09T03:39:21.388Z,102985.34
2023-02-09T03:42:09.798Z,102977.88
2023-02-09T03:44:56.681Z,102986.75
2023-02-09T03:47:43.197Z,102985.19
2023-02-09T03:50:30.600Z,102989.97
2023-02-09T03:53:17.057Z,102972.16
2023-02-09T03:56:04.620Z,102977.56
2023-02-09T03:58:53.007Z,102977.41
2023-02-09T04:01:40.302Z,102980.00
2023-02-09T04:04:27.450Z,102881.66
2023-02-09T04:07:14.023Z,102981.09
2023-02-09T04:10:00.853Z,102974.88
2023-02-09T04:12:48.301Z,102964.59
2023-02-09T04:15:36.673Z,102971.75
2023-02-09T04:18:23.305Z,102967.19
2023-02-09T04:21:10.007Z,102968.31
2023-02-09T04:23:56.929Z,102964.59
2023-02-09T04:26:43.761Z,102954.19
2023-02-09T04:29:30.623Z,102957.19
2023-02-09T04:32:18.932Z,102954.66
2023-02-09T04:35:05.924Z,102948.66
2023-02-09T04:37:52.524Z,102955.09
2023-02-09T04:40:39.374Z,102962.81
2023-02-09T04:43:26.292Z,102946.22
2023-02-09T04:46:14.301Z,102943.13
2023-02-09T04:49:02.318Z,102943.72
2023-02-09T04:51:49.221Z,102935.03
2023-02-09T04:54:35.952Z,102938.13
2023-02-09T04:57:40.087Z,102927.00
2023-02-09T05:00:27.112Z,102925.31
2023-02-09T05:03:14.570Z,102923.28
2023-02-09T05:06:07.021Z,102930.66
2023-02-09T05:08:53.704Z,102925.47
2023-02-09T05:11:40.318Z,102930.09
2023-02-09T05:14:27.376Z,102928.09
2023-02-09T05:17:14.643Z,102924.47
2023-02-09T05:20:01.273Z,102924.03
2023-02-09T05:22:50.267Z,102924.00
2023-02-09T05:25:37.106Z,102922.53
2023-02-09T05:28:23.954Z,102921.47
2023-02-09T05:31:10.605Z,102920.31
2023-02-09T05:33:57.425Z,102919.00
2023-02-09T05:36:44.232Z,102920.38
2023-02-09T05:39:32.523Z,102914.81
2023-02-09T05:42:19.412Z,102913.88
2023-02-09T05:45:06.825Z,102911.88
2023-02-09T05:47:53.612Z,102910.25
2023-02-09T05:50:40.521Z,102897.41
2023-02-09T05:53:27.103Z,102906.72
2023-02-09T05:56:15.213Z,102902.25
2023-02-09T05:59:04.313Z,102864.47
2023-02-09T06:01:52.003Z,102892.56
2023-02-09T06:04:38.437Z,102912.13
2023-02-09T06:07:25.202Z,102903.66
2023-02-09T06:10:12.048Z,102901.13
2023-02-09T06:13:00.115Z,102912.69
2023-02-09T06:15:46.827Z,102919.19
2023-02-09T06:18:33.726Z,102921.88
2023-02-09T06:21:20.920Z,102924.47
2023-02-09T06:24:07.690Z,102921.03
2023-02-09T06:26:56.277Z,102914.06
2023-02-09T06:29:44.338Z,102895.31
2023-02-09T06:32:31.190Z,102916.28
2023-02-09T06:35:18.064Z,102923.50
2023-02-09T06:38:04.985Z,102917.16
2023-02-09T06:40:52.172Z,102917.19
2023-02-09T06:43:39.124Z,102922.19
2023-02-09T06:46:27.168Z,102917.97
2023-02-09T06:49:13.834Z,102922.94
2023-02-09T06:52:00.434Z,102921.63
2023-02-09T06:54:47.330Z,102919.88
2023-02-09T06:57:34.911Z,102934.50
2023-02-09T07:00:22.241Z,102931.59
2023-02-09T07:03:11.190Z,102933.94
2023-02-09T07:06:03.294Z,102941.34
2023-02-09T07:08:50.916Z,102943.75
2023-02-09T07:11:37.368Z,102938.47
2023-02-09T07:14:24.050Z,102941.81
2023-02-09T07:17:10.764Z,102936.34
2023-02-09T07:19:59.228Z,102936.56
2023-02-09T07:22:45.698Z,102936.66
2023-02-09T07:25:32.478Z,102945.31
2023-02-09T07:28:21.353Z,102933.94
2023-02-09T07:31:10.622Z,102915.38
2023-02-09T07:33:57.545Z,102926.28
2023-02-09T07:36:47.884Z,102933.38
2023-02-09T07:39:34.737Z,102928.09
2023-02-09T07:42:23.296Z,102930.38
2023-02-09T07:45:17.044Z,102918.16
2023-02-09T07:48:03.581Z,102928.00
2023-02-09T07:50:50.588Z,102931.50
2023-02-09T07:53:38.601Z,102936.06
2023-02-09T07:56:26.365Z,102930.00
2023-02-09T07:59:13.019Z,102920.44
2023-02-09T08:01:59.942Z,102912.44
2023-02-09T08:04:46.937Z,102912.97
2023-02-09T08:07:33.589Z,102907.56
2023-02-09T08:10:21.788Z,102915.25
2023-02-09T08:13:08.709Z,102925.53
2023-02-09T08:15:59.476Z,102921.47
2023-02-09T08:18:51.488Z,102912.09
2023-02-09T08:21:41.084Z,102916.75
2023-02-09T08:24:27.609Z,102912.00
2023-02-09T08:27:15.761Z,102910.81
2023-02-09T08:30:03.987Z,102909.91
2023-02-09T08:32:50.807Z,102918.94
2023-02-09T08:35:37.554Z,102921.00
2023-02-09T08:38:24.456Z,102915.72
2023-02-09T08:41:15.073Z,102915.41
2023-02-09T08:44:04.051Z,102910.31
2023-02-09T08:46:50.737Z,102914.13
2023-02-09T08:49:37.790Z,102911.63
2023-02-09T08:52:24.424Z,102907.53
2023-02-09T08:55:11.461Z,102900.59
2023-02-09T08:57:58.010Z,102900.97
2023-02-09T09:00:46.188Z,102900.25
2023-02-09T09:03:33.317Z,102895.84
2023-02-09T09:06:19.787Z,102890.94
2023-02-09T09:09:06.583Z,102897.53
2023-02-09T09:11:53.330Z,102886.59
2023-02-09T09:14:40.650Z,102887.72
2023-02-09T09:17:30.165Z,102871.53
2023-02-09T09:20:17.061Z,102884.88
2023-02-09T09:23:03.675Z,102885.13
2023-02-09T09:25:50.419Z,102885.84
2023-02-09T09:28:37.456Z,102885.63
2023-02-09T09:31:23.962Z,102885.84
2023-02-09T09:34:12.144Z,102875.38
2023-02-09T09:36:58.984Z,102881.03
2023-02-09T09:39:45.666Z,102877.19
2023-02-09T09:42:37.252Z,102877.69
2023-02-09T09:45:26.809Z,102876.25
2023-02-09T09:48:23.904Z,102872.25
2023-02-09T09:51:16.984Z,102859.31
2023-02-09T09:54:06.551Z,102845.03
2023-02-09T09:56:55.533Z,102823.38
2023-02-09T09:59:43.395Z,102834.34
2023-02-09T10:02:32.633Z,102840.06
2023-02-09T10:05:21.247Z,102834.44
2023-02-09T10:08:16.366Z,102832.19
2023-02-09T10:11:06.812Z,102829.25
2023-02-09T10:13:55.347Z,102827.44
2023-02-09T10:16:44.688Z,102825.06
2023-02-09T10:19:32.766Z,102825.09
2023-02-09T10:22:21.951Z,102840.91
2023-02-09T10:25:40.240Z,102825.41
2023-02-09T10:28:29.050Z,102831.09
2023-02-09T10:31:23.561Z,102831.19
2023-02-09T10:34:16.552Z,102810.22
2023-02-09T10:37:20.891Z,102808.78
2023-02-09T10:40:15.276Z,102817.72
2023-02-09T10:43:05.473Z,102807.28
2023-02-09T10:45:58.770Z,102797.06
2023-02-09T10:48:47.334Z,102791.19
2023-02-09T10:51:35.168Z,102772.44
2023-02-09T10:54:22.495Z,102726.84
2023-02-09T10:57:23.104Z,102742.28
2023-02-09T11:00:44.370Z,102747.69
2023-02-09T11:03:31.401Z,102741.38
2023-02-09T11:06:20.909Z,102736.63
2023-02-09T11:09:12.717Z,102745.84
2023-02-09T11:12:00.208Z,102746.59
2023-02-09T11:14:47.180Z,102742.53
2023-02-09T11:17:42.366Z,102741.78
2023-02-09T11:20:35.794Z,102736.16
2023-02-09T11:23:38.518Z,102739.22
2023-02-09T11:26:37.028Z,102725.47
2023-02-09T11:29:30.949Z,102744.03
2023-02-09T11:32:21.537Z,102735.47
2023-02-09T11:35:12.944Z,102735.84
2023-02-09T11:38:04.063Z,102718.09
2023-02-09T11:40:55.020Z,102724.78
2023-02-09T11:43:44.407Z,102718.88
2023-02-09T11:46:34.800Z,102719.06
2023-02-09T11:49:29.176Z,102709.75
2023-02-09T11:52:30.352Z,102705.53
2023-02-09T11:55:27.675Z,102706.41
2023-02-09T11:58:38.871Z,102706.59
2023-02-09T12:01:44.013Z,102706.94
2023-02-09T12:04:44.031Z,102713.44
2023-02-09T12:07:42.749Z,102708.81
2023-02-09T12:10:39.449Z,102705.22
2023-02-09T12:13:39.513Z,102698.13
2023-02-09T12:16:31.318Z,102695.22
2023-02-09T12:19:30.548Z,102692.06
2023-02-09T12:22:53.365Z,102695.59
2023-02-09T12:26:02.323Z,102692.16
2023-02-09T12:28:56.001Z,102687.19
2023-02-09T12:32:26.282Z,102687.13
2023-02-09T12:35:29.372Z,102674.81
2023-02-09T12:38:21.174Z,102578.44
2023-02-09T12:41:13.081Z,102666.47
2023-02-09T12:44:40.380Z,102665.47
2023-02-09T12:47:49.553Z,102668.69
2023-02-09T12:50:54.721Z,102679.47
2023-02-09T12:53:50.532Z,102683.31
2023-02-09T12:56:39.943Z,102691.97
2023-02-09T12:59:27.552Z,102695.25
2023-02-09T13:02:24.124Z,102689.88
2023-02-09T13:05:15.042Z,102696.31
2023-02-09T13:08:15.985Z,102715.66
2023-02-09T13:11:23.508Z,102700.59
2023-02-09T13:14:17.053Z,102707.19
2023-02-09T13:17:37.257Z,102705.34
2023-02-09T13:20:47.042Z,102713.97
2023-02-09T13:23:37.284Z,102699.91
2023-02-09T13:26:28.005Z,102705.13
2023-02-09T13:29:21.258Z,102674.06
2023-02-09T13:32:27.763Z,102678.31
2023-02-09T13:35:24.932Z,102712.31
2023-02-09T13:38:17.244Z,102706.97
2023-02-09T13:41:07.148Z,102694.84
2023-02-09T13:43:55.170Z,102678.94
2023-02-09T13:46:41.933Z,102676.53
2023-02-09T13:49:30.807Z,102680.31
2023-02-09T13:52:20.494Z,102656.47
2023-02-09T13:55:12.972Z,102641.34
2023-02-09T13:58:01.962Z,102647.38
2023-02-09T14:00:52.628Z,102652.13
2023-02-09T14:03:57.450Z,102666.09
2023-02-09T14:06:50.419Z,102673.47
2023-02-09T14:09:47.721Z,102656.06
2023-02-09T14:12:56.824Z,102677.00
2023-02-09T14:16:06.273Z,102676.81
2023-02-09T14:18:55.726Z,102651.56
2023-02-09T14:21:46.604Z,102649.66
2023-02-09T14:24:43.611Z,102663.50
2023-02-09T14:27:33.047Z,102682.63
2023-02-09T14:30:22.104Z,102636.41
2023-02-09T14:33:24.818Z,102682.31
2023-02-09T14:36:24.638Z,102697.09
2023-02-09T14:39:14.055Z,102657.28
2023-02-09T14:42:18.106Z,102685.00
2023-02-09T14:45:30.427Z,102638.72
2023-02-09T14:48:21.864Z,102685.25
2023-02-09T14:51:15.191Z,102677.97
2023-02-09T14:54:02.899Z,102682.59
2023-02-09T14:56:49.856Z,102665.22
2023-02-09T14:59:36.395Z,102673.25
2023-02-09T15:02:27.083Z,102668.97
2023-02-09T15:05:13.685Z,102659.03
2023-02-09T15:08:05.807Z,102651.19
2023-02-09T15:10:57.449Z,102632.72
2023-02-09T15:13:44.318Z,102624.94
2023-02-09T15:16:31.748Z,102615.00
2023-02-09T15:19:23.777Z,102615.00
2023-02-09T15:22:13.659Z,102639.53
2023-02-09T15:25:00.330Z,102629.00
2023-02-09T15:27:52.705Z,102634.75
2023-02-09T15:30:39.430Z,102631.41
2023-02-09T15:33:27.106Z,102639.00
2023-02-09T15:36:17.818Z,102626.53
2023-02-09T15:39:05.069Z,102645.50
2023-02-09T15:42:09.117Z,102637.94
2023-02-09T15:45:14.489Z,102624.50
2023-02-09T15:48:01.272Z,102604.50
2023-02-09T15:50:50.772Z,102606.28
2023-02-09T15:53:38.834Z,102611.22
2023-02-09T15:56:25.391Z,102633.78
2023-02-09T15:59:18.989Z,102627.78
2023-02-09T16:02:12.841Z,102626.56
2023-02-09T16:04:59.385Z,102619.63
2023-02-09T16:07:46.248Z,102623.56
2023-02-09T16:10:33.084Z,102609.97
2023-02-09T16:13:21.212Z,102599.69
2023-02-09T16:16:16.818Z,102592.81
2023-02-09T16:19:05.620Z,102596.69
2023-02-09T16:21:56.440Z,102630.94
2023-02-09T16:24:46.269Z,102545.59
2023-02-09T16:27:33.426Z,102623.63
2023-02-09T16:30:22.827Z,102623.69
2023-02-09T16:33:09.719Z,102616.56
2023-02-09T16:36:00.004Z,102608.09
2023-02-09T16:38:47.737Z,102617.44
2023-02-09T16:41:50.758Z,102621.38
2023-02-09T16:44:37.969Z,102623.22
2023-02-09T16:47:27.968Z,102624.47
2023-02-09T16:50:22.783Z,102622.72
2023-02-09T16:53:22.338Z,102620.41
2023-02-09T16:56:15.467Z,102614.84
2023-02-09T16:59:02.208Z,102623.38
2023-02-09T17:01:49.559Z,102629.69
2023-02-09T17:04:37.873Z,102641.78
2023-02-09T17:07:30.234Z,102649.59
2023-02-09T17:10:20.402Z,102637.38
2023-02-09T17:13:06.817Z,102635.69
2023-02-09T17:15:55.351Z,102632.91
2023-02-09T17:18:44.132Z,102617.44
2023-02-09T17:21:32.606Z,102615.69
2023-02-09T17:24:19.483Z,102621.81
2023-02-09T17:27:08.117Z,102625.00
2023-02-09T17:29:54.945Z,102631.91
2023-02-09T17:32:41.718Z,102638.34
2023-02-09T17:35:58.047Z,102643.03
2023-02-09T17:38:37.772Z,102627.19
2023-02-09T17:41:33.454Z,102632.75
2023-02-09T17:44:43.751Z,102638.44
2023-02-09T17:47:31.994Z,102639.31
2023-02-09T17:50:20.049Z,102644.47
2023-02-09T17:53:15.667Z,102649.69
2023-02-09T17:56:02.681Z,102644.09
2023-02-09T17:58:49.387Z,102649.97
2023-02-09T18:01:53.592Z,102650.50
2023-02-09T18:04:56.051Z,102654.94
2023-02-09T18:07:45.611Z,102646.94
2023-02-09T18:10:37.439Z,102655.03
2023-02-09T18:13:25.891Z,102662.66
2023-02-09T18:16:15.061Z,102669.34
2023-02-09T18:19:02.842Z,102665.50
2023-02-09T18:21:52.547Z,102660.22
2023-02-09T18:24:39.269Z,102646.97
2023-02-09T18:27:40.485Z,102649.75
2023-02-09T18:30:31.931Z,102653.31
2023-02-09T18:33:18.974Z,102654.94
2023-02-09T18:36:08.094Z,102650.75
2023-02-09T18:38:55.818Z,102648.59
2023-02-09T18:41:43.798Z,102648.88
2023-02-09T18:44:32.365Z,102655.59
2023-02-09T18:47:18.775Z,102654.56
2023-02-09T18:50:06.186Z,102639.19
2023-02-09T18:52:57.114Z,102635.25
2023-02-09T18:55:43.929Z,102642.56
2023-02-09T18:58:35.482Z,102645.28
2023-02-09T19:01:24.127Z,102643.09
2023-02-09T19:04:10.950Z,102654.75
2023-02-09T19:06:58.060Z,102661.44
2023-02-09T19:09:46.988Z,102657.78
2023-02-09T19:12:33.717Z,102652.31
2023-02-09T19:15:26.530Z,102650.13
2023-02-09T19:18:20.369Z,102646.69
2023-02-09T19:21:17.270Z,102651.91
2023-02-09T19:24:04.605Z,102653.69
2023-02-09T19:27:02.096Z,102650.78
2023-02-09T19:29:54.037Z,102643.91
2023-02-09T19:32:48.696Z,102642.38
2023-02-09T19:35:37.840Z,102652.50
2023-02-09T19:38:25.732Z,102645.50
2023-02-09T19:41:13.656Z,102645.69
2023-02-09T19:44:01.911Z,102626.81
2023-02-09T19:46:49.562Z,102630.66
2023-02-09T19:49:35.988Z,102628.03
2023-02-09T19:52:23.050Z,102613.66
2023-02-09T19:55:11.220Z,102605.44
2023-02-09T19:57:57.965Z,102633.56
2023-02-09T20:00:46.054Z,102638.50
2023-02-09T20:03:32.802Z,102642.78
2023-02-09T20:06:19.780Z,102639.22
2023-02-09T20:09:06.639Z,102649.38
2023-02-09T20:11:53.357Z,102647.88
2023-02-09T20:14:40.284Z,102643.28
2023-02-09T20:17:30.217Z,102637.84
2023-02-09T20:20:17.051Z,102632.63
2023-02-09T20:23:03.705Z,102633.94
2023-02-09T20:25:50.626Z,102628.81
2023-02-09T20:28:37.413Z,102639.41
2023-02-09T20:31:26.158Z,102611.16
2023-02-09T20:34:19.037Z,102633.00
2023-02-09T20:37:05.720Z,102634.91
2023-02-09T20:40:08.783Z,102641.25
2023-02-09T20:43:13.478Z,102642.81
2023-02-09T20:46:25.111Z,102643.69
2023-02-09T20:49:25.408Z,102641.94
2023-02-09T20:52:15.228Z,102647.34
2023-02-09T20:55:02.203Z,102643.22
2023-02-09T20:57:49.285Z,102643.28
2023-02-09T21:00:35.808Z,102643.97
2023-02-09T21:03:22.757Z,102652.44
2023-02-09T21:06:10.960Z,102649.38
2023-02-09T21:08:57.717Z,102650.44
2023-02-09T21:11:44.665Z,102650.41
2023-02-09T21:14:41.879Z,102655.78
2023-02-09T21:17:31.684Z,102662.78
2023-02-09T21:20:19.165Z,102670.47
2023-02-09T21:23:07.024Z,102666.50
2023-02-09T21:26:01.716Z,102654.56
2023-02-09T21:28:48.643Z,102654.94
2023-02-09T21:31:36.383Z,102656.63
2023-02-09T21:34:23.177Z,102661.00
2023-02-09T21:37:13.018Z,102645.72
2023-02-09T21:40:03.038Z,102649.34
2023-02-09T21:42:50.947Z,102652.75
2023-02-09T21:45:39.437Z,102600.50
2023-02-09T21:48:26.363Z,102647.72
2023-02-09T21:51:13.028Z,102637.38
2023-02-09T21:53:59.855Z,102638.44
2023-02-09T21:56:48.058Z,102643.91
2023-02-09T21:59:34.766Z,102655.63
2023-02-09T22:02:21.708Z,102649.34
2023-02-09T22:05:09.886Z,102650.66
2023-02-09T22:07:56.626Z,102647.66
2023-02-09T22:10:43.321Z,102650.03
2023-02-09T22:13:36.819Z,102651.16
2023-02-09T22:16:34.794Z,102654.75
2023-02-09T22:19:24.325Z,102661.16
2023-02-09T22:22:11.589Z,102662.19
2023-02-09T22:24:59.181Z,102659.56
2023-02-09T22:27:46.061Z,102666.78
2023-02-09T22:30:35.194Z,102669.19
2023-02-09T22:33:21.910Z,102680.91
2023-02-09T22:36:12.155Z,102679.53
2023-02-09T22:38:58.796Z,102680.66
2023-02-09T22:41:47.508Z,102684.09
2023-02-09T22:44:34.266Z,102685.03
2023-02-09T22:47:22.549Z,102689.38
2023-02-09T22:50:09.773Z,102694.66
2023-02-09T22:52:56.893Z,102684.88
2023-02-09T22:55:46.433Z,102689.16
2023-02-09T22:58:33.449Z,102695.09
2023-02-09T23:01:20.368Z,102689.00
2023-02-09T23:04:08.433Z,102682.34
2023-02-09T23:06:55.197Z,102675.50
2023-02-09T23:09:42.211Z,102669.31
2023-02-09T23:12:28.974Z,102682.91
2023-02-09T23:15:16.009Z,102676.75
2023-02-09T23:18:02.803Z,102681.34
2023-02-09T23:20:50.924Z,102672.75
2023-02-09T23:23:37.939Z,102675.22
2023-02-09T23:26:25.416Z,102677.19
2023-02-09T23:29:14.610Z,102671.13
2023-02-09T23:32:01.137Z,102674.31
2023-02-09T23:34:47.849Z,102673.41
2023-02-09T23:37:38.222Z,102667.91
2023-02-09T23:40:24.997Z,102665.94
2023-02-09T23:43:11.549Z,102666.47
2023-02-09T23:46:01.521Z,102668.00
2023-02-09T23:48:48.867Z,102664.56
2023-02-09T23:51:36.792Z,102658.91
2023-02-09T23:54:24.872Z,102666.81
2023-02-09T23:57:11.500Z,102660.34
2023-02-09T23:59:58.405Z,102665.66
